createdAt,value
2022-08-25T00:02:07.396Z,26.35
2022-08-25T00:04:40.848Z,26.33
2022-08-25T00:07:13.483Z,26.30
2022-08-25T00:09:52.425Z,26.27
2022-08-25T00:12:23.188Z,26.21
2022-08-25T00:14:54.022Z,26.11
2022-08-25T00:17:24.980Z,26.06
2022-08-25T00:19:55.927Z,26.02
2022-08-25T00:22:26.702Z,25.97
2022-08-25T00:25:00.041Z,25.95
2022-08-25T00:27:31.475Z,25.95
2022-08-25T00:30:02.403Z,25.94
2022-08-25T00:32:33.155Z,25.87
2022-08-25T00:35:04.197Z,25.77
2022-08-25T00:37:38.864Z,25.71
2022-08-25T00:40:10.915Z,25.68
2022-08-25T00:42:41.808Z,25.64
2022-08-25T00:45:12.887Z,25.61
2022-08-25T00:47:45.072Z,25.59
2022-08-25T00:50:15.893Z,25.52
2022-08-25T00:52:49.008Z,25.47
2022-08-25T00:55:23.651Z,25.42
2022-08-25T00:57:55.835Z,25.36
2022-08-25T01:00:28.474Z,25.34
2022-08-25T01:02:59.642Z,25.29
2022-08-25T01:05:33.055Z,25.25
2022-08-25T01:08:06.666Z,25.20
2022-08-25T01:10:38.786Z,25.18
2022-08-25T01:13:16.449Z,25.18
2022-08-25T01:15:48.405Z,25.19
2022-08-25T01:18:19.262Z,25.21
2022-08-25T01:20:54.340Z,25.22
2022-08-25T01:23:25.574Z,25.23
2022-08-25T01:25:58.548Z,25.23
2022-08-25T01:28:31.064Z,25.23
2022-08-25T01:31:02.126Z,25.22
2022-08-25T01:33:33.091Z,25.22
2022-08-25T01:36:05.739Z,25.20
2022-08-25T01:38:36.597Z,25.19
2022-08-25T01:41:07.656Z,25.19
2022-08-25T01:43:39.226Z,25.18
2022-08-25T01:46:10.159Z,25.16
2022-08-25T01:48:40.979Z,25.13
2022-08-25T01:51:11.669Z,25.12
2022-08-25T01:53:44.209Z,25.09
2022-08-25T01:56:16.002Z,25.08
2022-08-25T01:58:48.179Z,25.08
2022-08-25T02:01:20.400Z,25.05
2022-08-25T02:03:52.066Z,25.01
2022-08-25T02:06:28.664Z,24.96
2022-08-25T02:09:01.612Z,24.91
2022-08-25T02:11:33.159Z,24.84
2022-08-25T02:14:03.917Z,24.75
2022-08-25T02:16:35.639Z,24.72
2022-08-25T02:19:07.020Z,24.71
2022-08-25T02:21:38.262Z,24.70
2022-08-25T02:24:09.347Z,24.66
2022-08-25T02:26:40.432Z,24.66
2022-08-25T02:29:11.689Z,24.64
2022-08-25T02:31:42.467Z,24.65
2022-08-25T02:34:15.306Z,24.64
2022-08-25T02:36:46.107Z,24.62
2022-08-25T02:39:16.998Z,24.61
2022-08-25T02:41:47.921Z,24.63
2022-08-25T02:44:18.939Z,24.63
2022-08-25T02:46:49.881Z,24.60
2022-08-25T02:49:20.715Z,24.60
2022-08-25T02:51:52.038Z,24.62
2022-08-25T02:54:23.410Z,24.65
2022-08-25T02:56:54.227Z,24.66
2022-08-25T02:59:25.238Z,24.65
2022-08-25T03:01:56.047Z,24.65
2022-08-25T03:04:27.578Z,24.68
2022-08-25T03:06:58.508Z,24.70
2022-08-25T03:09:29.293Z,24.68
2022-08-25T03:12:00.515Z,24.66
2022-08-25T03:14:31.426Z,24.65
2022-08-25T03:17:02.359Z,24.63
2022-08-25T03:19:33.121Z,24.65
2022-08-25T03:22:03.933Z,24.67
2022-08-25T03:24:34.865Z,24.68
2022-08-25T03:27:06.163Z,24.66
2022-08-25T03:29:36.944Z,24.68
2022-08-25T03:32:10.621Z,24.71
2022-08-25T03:34:41.758Z,24.71
2022-08-25T03:37:12.620Z,24.72
2022-08-25T03:39:43.773Z,24.73
2022-08-25T03:42:17.291Z,24.73
2022-08-25T03:44:48.016Z,24.75
2022-08-25T03:47:19.199Z,24.75
2022-08-25T03:49:51.935Z,24.74
2022-08-25T03:52:22.812Z,24.73
2022-08-25T03:54:53.524Z,24.75
2022-08-25T03:57:24.151Z,24.77
2022-08-25T03:59:55.430Z,24.80
2022-08-25T04:02:26.219Z,24.81
2022-08-25T04:04:57.524Z,24.82
2022-08-25T04:07:31.224Z,24.81
2022-08-25T04:10:01.861Z,24.85
2022-08-25T04:12:32.838Z,24.86
2022-08-25T04:15:03.571Z,24.85
2022-08-25T04:17:34.537Z,24.82
2022-08-25T04:20:06.155Z,24.81
2022-08-25T04:22:37.131Z,24.82
2022-08-25T04:25:09.259Z,24.82
2022-08-25T04:27:40.785Z,24.82
2022-08-25T04:30:13.290Z,24.83
2022-08-25T04:32:44.225Z,24.83
2022-08-25T04:35:15.052Z,24.84
2022-08-25T04:37:48.528Z,24.85
2022-08-25T04:40:19.949Z,24.88
2022-08-25T04:42:58.619Z,24.89
2022-08-25T04:45:29.338Z,24.91
2022-08-25T04:48:03.614Z,24.93
2022-08-25T04:50:34.372Z,24.95
2022-08-25T04:53:05.016Z,24.97
2022-08-25T04:55:36.009Z,24.99
2022-08-25T04:58:06.922Z,25.00
2022-08-25T05:00:46.857Z,25.02
2022-08-25T05:03:17.680Z,25.03
2022-08-25T05:05:48.317Z,25.06
2022-08-25T05:08:21.715Z,25.08
2022-08-25T05:10:56.806Z,25.11
2022-08-25T05:13:35.546Z,25.14
2022-08-25T05:16:09.896Z,25.16
2022-08-25T05:18:45.532Z,25.18
2022-08-25T05:21:28.983Z,25.21
2022-08-25T05:24:02.521Z,25.27
2022-08-25T05:26:36.681Z,25.28
2022-08-25T05:29:07.517Z,25.33
2022-08-25T05:31:42.319Z,25.38
2022-08-25T05:34:18.428Z,25.40
2022-08-25T05:36:49.230Z,25.44
2022-08-25T05:39:19.960Z,25.50
2022-08-25T05:41:53.577Z,25.57
2022-08-25T05:44:24.211Z,25.65
2022-08-25T05:46:56.504Z,25.69
2022-08-25T05:49:31.143Z,25.71
2022-08-25T05:52:01.989Z,25.71
2022-08-25T05:54:33.100Z,25.76
2022-08-25T05:57:11.088Z,25.83
2022-08-25T05:59:41.792Z,25.91
2022-08-25T06:02:31.282Z,25.96
2022-08-25T06:05:10.314Z,25.98
2022-08-25T06:07:44.560Z,26.01
2022-08-25T06:10:15.219Z,26.05
2022-08-25T06:12:46.712Z,26.08
2022-08-25T06:15:18.307Z,26.13
2022-08-25T06:18:00.834Z,26.16
2022-08-25T06:20:33.075Z,26.17
2022-08-25T06:23:04.073Z,26.24
2022-08-25T06:25:42.494Z,26.33
2022-08-25T06:28:18.185Z,26.43
2022-08-25T06:30:51.413Z,26.51
2022-08-25T06:33:25.054Z,26.59
2022-08-25T06:36:01.941Z,26.69
2022-08-25T06:38:34.656Z,26.77
2022-08-25T06:41:07.859Z,26.81
2022-08-25T06:43:52.937Z,26.85
2022-08-25T06:46:35.982Z,26.99
2022-08-25T06:49:14.310Z,27.15
2022-08-25T06:51:54.547Z,27.19
2022-08-25T06:54:29.365Z,27.19
2022-08-25T06:57:03.240Z,27.31
2022-08-25T06:59:34.219Z,27.50
2022-08-25T07:02:11.269Z,27.59
2022-08-25T07:04:42.236Z,27.60
2022-08-25T07:07:12.931Z,27.59
2022-08-25T07:09:44.105Z,27.61
2022-08-25T07:12:19.955Z,27.67
2022-08-25T07:15:10.066Z,27.85
2022-08-25T07:17:50.913Z,28.05
2022-08-25T07:22:59.045Z,28.38
2022-08-25T07:25:36.352Z,28.51
2022-08-25T07:28:07.616Z,28.65
2022-08-25T07:30:45.103Z,28.70
2022-08-25T07:33:22.592Z,28.68
2022-08-25T07:35:53.331Z,28.71
2022-08-25T07:38:24.153Z,28.80
2022-08-25T07:40:57.066Z,28.83
2022-08-25T07:43:28.039Z,28.81
2022-08-25T07:46:05.775Z,28.78
2022-08-25T07:48:39.205Z,28.74
2022-08-25T07:51:12.045Z,28.75
2022-08-25T07:53:45.082Z,28.80
2022-08-25T07:56:25.688Z,28.88
2022-08-25T07:58:56.440Z,28.96
2022-08-25T08:01:30.181Z,29.05
2022-08-25T08:04:03.773Z,29.12
2022-08-25T08:06:39.695Z,29.15
2022-08-25T08:09:16.416Z,29.16
2022-08-25T08:12:02.175Z,29.17
2022-08-25T08:14:34.717Z,29.23
2022-08-25T08:17:17.503Z,29.27
2022-08-25T08:20:02.293Z,29.30
2022-08-25T08:22:41.180Z,29.38
2022-08-25T08:25:13.694Z,29.38
2022-08-25T08:27:55.127Z,29.41
2022-08-25T08:30:26.692Z,29.51
2022-08-25T08:33:09.680Z,29.60
2022-08-25T08:35:45.731Z,29.72
2022-08-25T08:38:22.028Z,29.80
2022-08-25T08:41:22.893Z,29.96
2022-08-25T08:43:55.175Z,30.09
2022-08-25T08:46:26.912Z,30.19
2022-08-25T08:49:04.445Z,30.31
2022-08-25T08:51:37.333Z,30.53
2022-08-25T08:54:15.158Z,30.80
2022-08-25T08:56:53.863Z,31.14
2022-08-25T08:59:28.885Z,31.38
2022-08-25T09:02:13.662Z,31.55
2022-08-25T09:04:48.039Z,31.85
2022-08-25T09:07:22.277Z,32.09
2022-08-25T09:09:53.265Z,32.22
2022-08-25T09:12:28.441Z,32.43
2022-08-25T09:15:12.897Z,32.64
2022-08-25T09:17:54.828Z,32.83
2022-08-25T09:20:36.034Z,32.96
2022-08-25T09:23:11.104Z,33.22
2022-08-25T09:25:53.268Z,33.40
2022-08-25T09:28:30.618Z,33.65
2022-08-25T09:31:04.750Z,33.98
2022-08-25T09:33:40.798Z,34.16
2022-08-25T09:36:12.466Z,34.32
2022-08-25T09:38:43.709Z,34.54
2022-08-25T09:41:15.299Z,34.73
2022-08-25T09:43:55.180Z,34.85
2022-08-25T09:46:29.256Z,35.15
2022-08-25T09:49:19.728Z,35.24
2022-08-25T09:51:52.843Z,35.28
2022-08-25T09:54:25.737Z,35.26
2022-08-25T09:57:16.077Z,35.19
2022-08-25T09:59:57.694Z,35.32
2022-08-25T10:02:29.384Z,35.58
2022-08-25T10:05:00.328Z,35.70
2022-08-25T10:07:32.506Z,35.81
2022-08-25T10:10:08.133Z,35.87
2022-08-25T10:12:42.726Z,35.92
2022-08-25T10:15:29.703Z,35.93
2022-08-25T10:18:20.899Z,36.01
2022-08-25T10:21:08.222Z,36.15
2022-08-25T10:23:40.794Z,36.17
2022-08-25T10:26:13.567Z,36.20
2022-08-25T10:28:55.647Z,36.22
2022-08-25T10:31:33.093Z,36.38
2022-08-25T10:34:09.890Z,36.46
2022-08-25T10:36:47.069Z,36.47
2022-08-25T10:39:34.024Z,36.58
2022-08-25T10:42:08.428Z,36.80
2022-08-25T10:44:58.161Z,36.87
2022-08-25T10:47:42.015Z,37.09
2022-08-25T10:50:20.900Z,37.18
2022-08-25T10:52:57.208Z,37.27
2022-08-25T10:55:39.690Z,37.48
2022-08-25T10:58:13.356Z,37.63
2022-08-25T11:00:50.502Z,37.58
2022-08-25T11:03:26.815Z,37.66
2022-08-25T11:06:00.925Z,37.59
2022-08-25T11:08:34.690Z,37.52
2022-08-25T11:11:06.019Z,37.61
2022-08-25T11:13:41.442Z,37.62
2022-08-25T11:16:17.423Z,37.63
2022-08-25T11:18:51.095Z,37.70
2022-08-25T11:21:23.963Z,37.88
2022-08-25T11:23:57.159Z,38.03
2022-08-25T11:26:36.911Z,38.07
2022-08-25T11:29:14.756Z,38.21
2022-08-25T11:31:53.517Z,38.34
2022-08-25T11:34:27.672Z,38.29
2022-08-25T11:37:11.308Z,38.23
2022-08-25T11:39:47.950Z,38.17
2022-08-25T11:42:30.120Z,38.10
2022-08-25T11:45:05.549Z,38.10
2022-08-25T11:47:47.844Z,38.12
2022-08-25T11:50:35.096Z,38.21
2022-08-25T11:53:23.643Z,38.28
2022-08-25T11:56:17.082Z,38.55
2022-08-25T11:58:51.497Z,38.62
2022-08-25T12:01:40.242Z,38.67
2022-08-25T12:04:23.398Z,38.61
2022-08-25T12:07:11.064Z,38.68
2022-08-25T12:10:19.402Z,38.45
2022-08-25T12:13:08.111Z,38.28
2022-08-25T12:15:58.006Z,38.34
2022-08-25T12:18:46.344Z,38.32
2022-08-25T12:21:18.791Z,38.29
2022-08-25T12:24:11.844Z,38.21
2022-08-25T12:26:46.197Z,38.17
2022-08-25T12:29:24.014Z,38.26
2022-08-25T12:32:09.526Z,38.32
2022-08-25T12:34:59.339Z,38.33
2022-08-25T12:37:30.215Z,38.31
2022-08-25T12:40:05.532Z,38.16
2022-08-25T12:42:46.147Z,38.15
2022-08-25T12:45:42.181Z,38.24
2022-08-25T12:48:31.753Z,38.23
2022-08-25T12:51:04.683Z,38.39
2022-08-25T12:53:41.566Z,38.43
2022-08-25T12:56:17.953Z,38.64
2022-08-25T12:59:00.251Z,38.63
2022-08-25T13:01:36.869Z,38.54
2022-08-25T13:04:14.969Z,38.54
2022-08-25T13:06:59.295Z,38.45
2022-08-25T13:09:59.002Z,38.50
2022-08-25T13:12:42.018Z,38.68
2022-08-25T13:15:14.862Z,38.69
2022-08-25T13:17:47.976Z,38.76
2022-08-25T13:20:29.474Z,38.95
2022-08-25T13:23:08.092Z,38.87
2022-08-25T13:25:47.837Z,38.67
2022-08-25T13:28:28.869Z,38.55
2022-08-25T13:31:07.740Z,38.51
2022-08-25T13:33:39.778Z,38.52
2022-08-25T13:36:34.642Z,38.35
2022-08-25T13:39:16.291Z,38.32
2022-08-25T13:41:56.656Z,38.20
2022-08-25T13:44:34.636Z,38.11
2022-08-25T13:47:18.318Z,38.23
2022-08-25T13:49:51.626Z,38.30
2022-08-25T13:52:31.398Z,38.21
2022-08-25T13:55:04.576Z,38.27
2022-08-25T13:57:38.971Z,38.27
2022-08-25T14:00:11.707Z,38.26
2022-08-25T14:02:44.384Z,38.14
2022-08-25T14:05:19.422Z,37.96
2022-08-25T14:08:03.862Z,37.76
2022-08-25T14:10:46.892Z,37.55
2022-08-25T14:13:35.329Z,37.62
2022-08-25T14:16:15.694Z,37.67
2022-08-25T14:18:52.527Z,37.62
2022-08-25T14:21:27.603Z,37.49
2022-08-25T14:23:58.623Z,37.31
2022-08-25T14:26:32.825Z,37.34
2022-08-25T14:29:08.628Z,37.32
2022-08-25T14:31:47.781Z,37.38
2022-08-25T14:34:20.494Z,37.37
2022-08-25T14:36:53.688Z,37.26
2022-08-25T14:39:30.212Z,37.19
2022-08-25T14:42:00.979Z,37.02
2022-08-25T14:44:37.805Z,36.88
2022-08-25T14:47:21.648Z,36.80
2022-08-25T14:49:55.102Z,36.76
2022-08-25T14:52:26.910Z,36.64
2022-08-25T14:54:58.433Z,36.50
2022-08-25T14:57:30.259Z,36.17
2022-08-25T15:00:05.266Z,35.93
2022-08-25T15:02:41.360Z,35.67
2022-08-25T15:05:13.536Z,35.53
2022-08-25T15:08:01.630Z,35.45
2022-08-25T15:10:32.595Z,35.36
2022-08-25T15:13:07.109Z,35.25
2022-08-25T15:15:52.323Z,35.10
2022-08-25T15:18:24.224Z,34.77
2022-08-25T15:21:00.712Z,34.58
2022-08-25T15:23:37.107Z,34.44
2022-08-25T15:26:09.679Z,34.35
2022-08-25T15:28:40.737Z,34.27
2022-08-25T15:31:12.321Z,34.18
2022-08-25T15:33:46.738Z,34.14
2022-08-25T15:36:17.829Z,34.08
2022-08-25T15:38:53.694Z,34.04
2022-08-25T15:41:29.794Z,33.98
2022-08-25T15:44:02.081Z,33.86
2022-08-25T15:46:33.417Z,33.83
2022-08-25T15:49:05.184Z,33.88
2022-08-25T15:51:39.010Z,33.90
2022-08-25T15:54:09.716Z,33.89
2022-08-25T15:56:44.247Z,33.88
2022-08-25T15:59:16.678Z,33.79
2022-08-25T16:01:54.283Z,33.72
2022-08-25T16:04:31.576Z,33.65
2022-08-25T16:07:02.696Z,33.55
2022-08-25T16:09:36.159Z,33.49
2022-08-25T16:12:08.524Z,33.44
2022-08-25T16:14:40.777Z,33.39
2022-08-25T16:17:14.041Z,33.29
2022-08-25T16:19:44.788Z,33.25
2022-08-25T16:22:15.765Z,33.26
2022-08-25T16:24:49.436Z,33.27
2022-08-25T16:27:20.255Z,33.22
2022-08-25T16:29:55.688Z,33.23
2022-08-25T16:32:40.792Z,33.19
2022-08-25T16:35:15.012Z,33.17
2022-08-25T16:37:48.708Z,33.15
2022-08-25T16:40:22.966Z,33.16
2022-08-25T16:42:56.890Z,33.18
2022-08-25T16:45:29.253Z,33.22
2022-08-25T16:48:01.727Z,33.23
2022-08-25T16:50:32.663Z,33.17
2022-08-25T16:53:25.574Z,33.05
2022-08-25T16:56:03.299Z,32.91
2022-08-25T16:58:34.477Z,32.80
2022-08-25T17:01:12.254Z,32.74
2022-08-25T17:03:46.259Z,32.61
2022-08-25T17:06:19.146Z,32.52
2022-08-25T17:08:52.729Z,32.50
2022-08-25T17:11:27.833Z,32.43
2022-08-25T17:14:02.110Z,32.42
2022-08-25T17:16:43.596Z,32.33
2022-08-25T17:19:17.091Z,32.27
2022-08-25T17:21:49.892Z,32.22
2022-08-25T17:24:21.366Z,32.15
2022-08-25T17:26:58.037Z,32.11
2022-08-25T17:29:31.146Z,32.07
2022-08-25T17:32:09.494Z,32.04
2022-08-25T17:34:42.362Z,31.97
2022-08-25T17:37:15.185Z,31.91
2022-08-25T17:39:46.666Z,31.87
2022-08-25T17:42:21.042Z,31.82
2022-08-25T17:44:51.776Z,31.73
2022-08-25T17:47:23.195Z,31.64
2022-08-25T17:49:53.862Z,31.57
2022-08-25T17:52:25.871Z,31.50
2022-08-25T17:55:00.743Z,31.47
2022-08-25T17:57:33.866Z,31.44
2022-08-25T18:00:09.913Z,31.41
2022-08-25T18:02:45.270Z,31.34
2022-08-25T18:05:16.948Z,31.28
2022-08-25T18:07:48.160Z,31.25
2022-08-25T18:10:22.477Z,31.23
2022-08-25T18:12:57.517Z,31.22
2022-08-25T18:15:31.159Z,31.18
2022-08-25T18:18:05.068Z,31.13
2022-08-25T18:20:36.138Z,31.06
2022-08-25T18:23:11.304Z,31.03
2022-08-25T18:25:47.984Z,31.03
2022-08-25T18:28:21.315Z,30.99
2022-08-25T18:30:55.916Z,30.98
2022-08-25T18:33:36.080Z,30.98
2022-08-25T18:36:07.433Z,30.94
2022-08-25T18:38:58.392Z,30.88
2022-08-25T18:41:30.052Z,30.85
2022-08-25T18:44:03.867Z,30.80
2022-08-25T18:46:37.195Z,30.75
2022-08-25T18:49:08.567Z,30.68
2022-08-25T18:51:44.528Z,30.61
2022-08-25T18:54:23.084Z,30.56
2022-08-25T18:56:57.282Z,30.53
2022-08-25T18:59:28.761Z,30.46
2022-08-25T19:01:59.942Z,30.43
2022-08-25T19:04:36.764Z,30.42
2022-08-25T19:07:10.064Z,30.38
2022-08-25T19:09:40.731Z,30.30
2022-08-25T19:12:22.828Z,30.26
2022-08-25T19:14:53.742Z,30.22
2022-08-25T19:17:24.876Z,30.15
2022-08-25T19:19:57.444Z,30.03
2022-08-25T19:22:41.559Z,29.92
2022-08-25T19:25:13.305Z,29.82
2022-08-25T19:27:44.277Z,29.75
2022-08-25T19:30:16.912Z,29.71
2022-08-25T19:32:48.296Z,29.67
2022-08-25T19:35:24.135Z,29.64
2022-08-25T19:37:56.831Z,29.60
2022-08-25T19:40:30.199Z,29.50
2022-08-25T19:43:01.665Z,29.45
2022-08-25T19:45:37.466Z,29.40
2022-08-25T19:48:11.519Z,29.33
2022-08-25T19:50:42.490Z,29.27
2022-08-25T19:53:16.025Z,29.25
2022-08-25T19:55:47.141Z,29.21
2022-08-25T19:58:21.657Z,29.20
2022-08-25T20:01:07.477Z,29.18
2022-08-25T20:03:38.129Z,29.14
2022-08-25T20:06:11.887Z,29.06
2022-08-25T20:08:47.033Z,28.97
2022-08-25T20:11:36.193Z,28.87
2022-08-25T20:14:08.774Z,28.77
2022-08-25T20:16:43.322Z,28.72
2022-08-25T20:19:19.387Z,28.68
2022-08-25T20:21:52.353Z,28.63
2022-08-25T20:24:42.081Z,28.59
2022-08-25T20:27:16.716Z,28.55
2022-08-25T20:29:47.940Z,28.53
2022-08-25T20:32:23.038Z,28.52
2022-08-25T20:34:57.708Z,28.47
2022-08-25T20:37:40.108Z,28.46
2022-08-25T20:40:12.498Z,28.43
2022-08-25T20:42:46.013Z,28.41
2022-08-25T20:45:17.898Z,28.40
2022-08-25T20:47:49.572Z,28.43
2022-08-25T20:50:24.160Z,28.44
2022-08-25T20:52:58.858Z,28.43
2022-08-25T20:55:33.619Z,28.43
2022-08-25T20:58:15.852Z,28.42
2022-08-25T21:00:49.308Z,28.41
2022-08-25T21:03:23.342Z,28.40
2022-08-25T21:05:54.401Z,28.39
2022-08-25T21:08:33.959Z,28.40
2022-08-25T21:11:08.168Z,28.39
2022-08-25T21:13:39.058Z,28.42
2022-08-25T21:16:10.666Z,28.44
2022-08-25T21:18:47.978Z,28.45
2022-08-25T21:21:21.309Z,28.42
2022-08-25T21:23:58.069Z,28.37
2022-08-25T21:26:29.752Z,28.31
2022-08-25T21:29:03.822Z,28.27
2022-08-25T21:31:37.722Z,28.25
2022-08-25T21:34:13.352Z,28.21
2022-08-25T21:36:44.502Z,28.14
2022-08-25T21:39:15.837Z,28.12
2022-08-25T21:41:47.163Z,28.12
2022-08-25T21:44:20.135Z,28.14
2022-08-25T21:46:54.231Z,28.16
2022-08-25T21:49:28.768Z,28.15
2022-08-25T21:52:11.084Z,28.13
2022-08-25T21:54:43.945Z,28.09
2022-08-25T21:57:14.722Z,28.03
2022-08-25T21:59:48.085Z,28.00
2022-08-25T22:02:22.559Z,27.99
2022-08-25T22:04:56.511Z,28.00
2022-08-25T22:07:27.821Z,27.93
2022-08-25T22:10:15.924Z,27.87
2022-08-25T22:12:51.782Z,27.84
2022-08-25T22:15:27.905Z,27.85
2022-08-25T22:18:01.180Z,27.86
2022-08-25T22:20:32.339Z,27.83
2022-08-25T22:23:03.061Z,27.78
2022-08-25T22:25:35.950Z,27.72
2022-08-25T22:28:06.964Z,27.64
2022-08-25T22:30:38.122Z,27.58
2022-08-25T22:33:14.938Z,27.53
2022-08-25T22:35:49.349Z,27.49
2022-08-25T22:38:25.528Z,27.46
2022-08-25T22:40:56.568Z,27.41
2022-08-25T22:43:33.205Z,27.39
2022-08-25T22:46:14.051Z,27.36
2022-08-25T22:48:51.499Z,27.35
2022-08-25T22:51:27.508Z,27.31
2022-08-25T22:54:00.562Z,27.29
2022-08-25T22:56:35.818Z,27.25
2022-08-25T22:59:09.389Z,27.19
2022-08-25T23:01:55.886Z,27.12
2022-08-25T23:04:26.556Z,27.10
2022-08-25T23:06:57.288Z,27.08
2022-08-25T23:09:29.335Z,27.06
2022-08-25T23:12:05.342Z,27.03
2022-08-25T23:14:36.931Z,27.02
2022-08-25T23:17:25.395Z,26.98
2022-08-25T23:20:24.935Z,26.96
2022-08-25T23:22:58.140Z,26.96
2022-08-25T23:25:32.239Z,26.92
2022-08-25T23:28:03.472Z,26.92
2022-08-25T23:30:44.977Z,26.91
2022-08-25T23:33:25.387Z,26.91
2022-08-25T23:36:03.228Z,26.93
2022-08-25T23:38:33.989Z,26.90
2022-08-25T23:41:10.229Z,26.82
2022-08-25T23:43:43.739Z,26.73
2022-08-25T23:46:14.912Z,26.66
2022-08-25T23:48:49.003Z,26.62
2022-08-25T23:51:29.660Z,26.55
2022-08-25T23:54:03.965Z,26.50
2022-08-25T23:56:37.366Z,26.44
2022-08-25T23:59:17.055Z,26.43
